sensor_id;sensor_type;location;lat;lon;timestamp;temperature;humidity
48454;DHT22;34261;55.678;12.464;2023-09-07T00:01:54;19.30;99.90
48454;DHT22;34261;55.678;12.464;2023-09-07T00:04:20;19.30;99.90
48454;DHT22;34261;55.678;12.464;2023-09-07T00:06:46;19.30;99.90
48454;DHT22;34261;55.678;12.464;2023-09-07T00:09:12;19.30;99.90
48454;DHT22;34261;55.678;12.464;2023-09-07T00:11:38;19.30;99.90
48454;DHT22;34261;55.678;12.464;2023-09-07T00:14:04;19.30;99.90
48454;DHT22;34261;55.678;12.464;2023-09-07T00:16:33;19.20;99.90
48454;DHT22;34261;55.678;12.464;2023-09-07T00:19:04;19.30;99.90
48454;DHT22;34261;55.678;12.464;2023-09-07T00:21:29;19.20;99.90
48454;DHT22;34261;55.678;12.464;2023-09-07T00:23:55;19.20;99.90
48454;DHT22;34261;55.678;12.464;2023-09-07T00:26:20;19.20;99.90
48454;DHT22;34261;55.678;12.464;2023-09-07T00:28:46;19.20;99.90
48454;DHT22;34261;55.678;12.464;2023-09-07T00:31:12;19.20;99.90
48454;DHT22;34261;55.678;12.464;2023-09-07T00:33:37;19.20;99.90
48454;DHT22;34261;55.678;12.464;2023-09-07T00:36:03;19.20;99.90
48454;DHT22;34261;55.678;12.464;2023-09-07T00:38:29;19.20;99.90
48454;DHT22;34261;55.678;12.464;2023-09-07T00:40:55;19.20;99.90
48454;DHT22;34261;55.678;12.464;2023-09-07T00:43:21;19.20;99.90
48454;DHT22;34261;55.678;12.464;2023-09-07T00:45:46;19.20;99.90
48454;DHT22;34261;55.678;12.464;2023-09-07T00:48:14;19.30;99.90
48454;DHT22;34261;55.678;12.464;2023-09-07T00:50:41;19.30;99.90
48454;DHT22;34261;55.678;12.464;2023-09-07T00:53:07;19.30;99.90
48454;DHT22;34261;55.678;12.464;2023-09-07T00:55:33;19.30;99.90
48454;DHT22;34261;55.678;12.464;2023-09-07T00:58:01;19.30;99.90
48454;DHT22;34261;55.678;12.464;2023-09-07T01:00:28;19.30;99.90
48454;DHT22;34261;55.678;12.464;2023-09-07T01:02:54;19.30;99.90
48454;DHT22;34261;55.678;12.464;2023-09-07T01:05:27;19.20;99.90
48454;DHT22;34261;55.678;12.464;2023-09-07T01:07:58;19.20;99.90
48454;DHT22;34261;55.678;12.464;2023-09-07T01:10:26;19.20;99.90
48454;DHT22;34261;55.678;12.464;2023-09-07T01:12:51;19.20;99.90
48454;DHT22;34261;55.678;12.464;2023-09-07T01:15:17;19.20;99.90
48454;DHT22;34261;55.678;12.464;2023-09-07T01:17:43;19.10;99.90
48454;DHT22;34261;55.678;12.464;2023-09-07T01:20:10;19.10;99.90
48454;DHT22;34261;55.678;12.464;2023-09-07T01:22:38;19.10;99.90
48454;DHT22;34261;55.678;12.464;2023-09-07T01:25:06;19.00;99.90
48454;DHT22;34261;55.678;12.464;2023-09-07T01:27:33;19.00;99.90
48454;DHT22;34261;55.678;12.464;2023-09-07T01:29:59;19.10;99.90
48454;DHT22;34261;55.678;12.464;2023-09-07T01:32:24;19.10;99.90
48454;DHT22;34261;55.678;12.464;2023-09-07T01:34:55;19.10;99.90
48454;DHT22;34261;55.678;12.464;2023-09-07T01:37:22;19.10;99.90
48454;DHT22;34261;55.678;12.464;2023-09-07T01:39:47;19.10;99.90
48454;DHT22;34261;55.678;12.464;2023-09-07T01:42:14;19.10;99.90
48454;DHT22;34261;55.678;12.464;2023-09-07T01:44:40;19.10;99.90
48454;DHT22;34261;55.678;12.464;2023-09-07T01:47:05;19.10;99.90
48454;DHT22;34261;55.678;12.464;2023-09-07T01:49:31;19.20;99.90
48454;DHT22;34261;55.678;12.464;2023-09-07T01:51:56;19.10;99.90
48454;DHT22;34261;55.678;12.464;2023-09-07T01:54:22;19.10;99.90
48454;DHT22;34261;55.678;12.464;2023-09-07T01:56:48;19.10;99.90
48454;DHT22;34261;55.678;12.464;2023-09-07T01:59:13;19.10;99.90
48454;DHT22;34261;55.678;12.464;2023-09-07T02:01:39;19.10;99.90
48454;DHT22;34261;55.678;12.464;2023-09-07T02:04:06;19.10;99.90
48454;DHT22;34261;55.678;12.464;2023-09-07T02:06:31;19.10;99.90
48454;DHT22;34261;55.678;12.464;2023-09-07T02:08:57;19.10;99.90
48454;DHT22;34261;55.678;12.464;2023-09-07T02:11:23;19.10;99.90
48454;DHT22;34261;55.678;12.464;2023-09-07T02:13:49;19.00;99.90
48454;DHT22;34261;55.678;12.464;2023-09-07T02:16:14;19.10;99.90
48454;DHT22;34261;55.678;12.464;2023-09-07T02:18:41;19.10;99.90
48454;DHT22;34261;55.678;12.464;2023-09-07T02:21:09;19.00;99.90
48454;DHT22;34261;55.678;12.464;2023-09-07T02:23:35;19.10;99.90
48454;DHT22;34261;55.678;12.464;2023-09-07T02:26:03;19.00;99.90
48454;DHT22;34261;55.678;12.464;2023-09-07T02:28:29;18.90;99.90
48454;DHT22;34261;55.678;12.464;2023-09-07T02:31:01;18.90;99.90
48454;DHT22;34261;55.678;12.464;2023-09-07T02:33:27;19.00;99.90
48454;DHT22;34261;55.678;12.464;2023-09-07T02:35:53;19.00;99.90
48454;DHT22;34261;55.678;12.464;2023-09-07T02:38:22;19.00;99.90
48454;DHT22;34261;55.678;12.464;2023-09-07T02:40:47;19.00;99.90
48454;DHT22;34261;55.678;12.464;2023-09-07T02:43:13;19.00;99.90
48454;DHT22;34261;55.678;12.464;2023-09-07T02:45:39;19.00;99.90
48454;DHT22;34261;55.678;12.464;2023-09-07T02:48:05;19.00;99.90
48454;DHT22;34261;55.678;12.464;2023-09-07T02:50:33;19.00;99.90
48454;DHT22;34261;55.678;12.464;2023-09-07T02:52:59;19.00;99.90
48454;DHT22;34261;55.678;12.464;2023-09-07T02:55:26;19.00;99.90
48454;DHT22;34261;55.678;12.464;2023-09-07T02:57:51;19.00;99.90
48454;DHT22;34261;55.678;12.464;2023-09-07T03:00:17;19.00;99.90
48454;DHT22;34261;55.678;12.464;2023-09-07T03:02:43;18.90;99.90
48454;DHT22;34261;55.678;12.464;2023-09-07T03:05:09;19.00;99.90
48454;DHT22;34261;55.678;12.464;2023-09-07T03:07:35;18.90;99.90
48454;DHT22;34261;55.678;12.464;2023-09-07T03:10:01;19.00;99.90
48454;DHT22;34261;55.678;12.464;2023-09-07T03:12:27;19.00;99.90
48454;DHT22;34261;55.678;12.464;2023-09-07T03:14:53;18.90;99.90
48454;DHT22;34261;55.678;12.464;2023-09-07T03:17:18;18.90;99.90
48454;DHT22;34261;55.678;12.464;2023-09-07T03:19:46;18.80;99.90
48454;DHT22;34261;55.678;12.464;2023-09-07T03:22:12;18.90;99.90
48454;DHT22;34261;55.678;12.464;2023-09-07T03:24:38;18.90;99.90
48454;DHT22;34261;55.678;12.464;2023-09-07T03:27:04;18.90;99.90
48454;DHT22;34261;55.678;12.464;2023-09-07T03:29:31;19.00;99.90
48454;DHT22;34261;55.678;12.464;2023-09-07T03:32:01;18.90;99.90
48454;DHT22;34261;55.678;12.464;2023-09-07T03:34:28;19.00;99.90
48454;DHT22;34261;55.678;12.464;2023-09-07T03:36:53;19.00;99.90
48454;DHT22;34261;55.678;12.464;2023-09-07T03:39:19;19.00;99.90
48454;DHT22;34261;55.678;12.464;2023-09-07T03:41:47;19.00;99.90
48454;DHT22;34261;55.678;12.464;2023-09-07T03:44:13;19.00;99.90
48454;DHT22;34261;55.678;12.464;2023-09-07T03:46:38;18.90;99.90
48454;DHT22;34261;55.678;12.464;2023-09-07T03:49:04;19.00;99.90
48454;DHT22;34261;55.678;12.464;2023-09-07T03:51:30;18.90;99.90
48454;DHT22;34261;55.678;12.464;2023-09-07T03:53:56;18.90;99.90
48454;DHT22;34261;55.678;12.464;2023-09-07T03:56:21;18.90;99.90
48454;DHT22;34261;55.678;12.464;2023-09-07T03:58:47;18.90;99.90
48454;DHT22;34261;55.678;12.464;2023-09-07T04:01:13;18.90;99.90
48454;DHT22;34261;55.678;12.464;2023-09-07T04:03:39;18.90;99.90
48454;DHT22;34261;55.678;12.464;2023-09-07T04:06:06;18.90;99.90
48454;DHT22;34261;55.678;12.464;2023-09-07T04:08:32;18.90;99.90
48454;DHT22;34261;55.678;12.464;2023-09-07T04:10:58;18.90;99.90
48454;DHT22;34261;55.678;12.464;2023-09-07T04:13:23;18.90;99.90
48454;DHT22;34261;55.678;12.464;2023-09-07T04:15:49;18.90;99.90
48454;DHT22;34261;55.678;12.464;2023-09-07T04:18:15;18.90;99.90
48454;DHT22;34261;55.678;12.464;2023-09-07T04:20:42;18.90;99.90
48454;DHT22;34261;55.678;12.464;2023-09-07T04:23:08;19.00;99.90
48454;DHT22;34261;55.678;12.464;2023-09-07T04:25:34;19.00;99.90
48454;DHT22;34261;55.678;12.464;2023-09-07T04:27:59;19.00;99.90
48454;DHT22;34261;55.678;12.464;2023-09-07T04:30:25;19.00;99.90
48454;DHT22;34261;55.678;12.464;2023-09-07T04:32:51;19.00;99.90
48454;DHT22;34261;55.678;12.464;2023-09-07T04:35:17;19.00;99.90
48454;DHT22;34261;55.678;12.464;2023-09-07T04:37:43;19.00;99.90
48454;DHT22;34261;55.678;12.464;2023-09-07T04:40:09;19.00;99.90
48454;DHT22;34261;55.678;12.464;2023-09-07T04:42:35;19.00;99.90
48454;DHT22;34261;55.678;12.464;2023-09-07T04:45:01;19.00;99.90
48454;DHT22;34261;55.678;12.464;2023-09-07T04:47:26;19.00;99.90
48454;DHT22;34261;55.678;12.464;2023-09-07T04:49:52;19.00;99.90
48454;DHT22;34261;55.678;12.464;2023-09-07T04:52:18;19.00;99.90
48454;DHT22;34261;55.678;12.464;2023-09-07T04:54:44;18.90;99.90
48454;DHT22;34261;55.678;12.464;2023-09-07T04:57:10;18.90;99.90
48454;DHT22;34261;55.678;12.464;2023-09-07T04:59:36;19.00;99.90
48454;DHT22;34261;55.678;12.464;2023-09-07T05:02:01;18.90;99.90
48454;DHT22;34261;55.678;12.464;2023-09-07T05:04:27;18.90;99.90
48454;DHT22;34261;55.678;12.464;2023-09-07T05:06:53;18.90;99.90
48454;DHT22;34261;55.678;12.464;2023-09-07T05:09:18;18.80;99.90
48454;DHT22;34261;55.678;12.464;2023-09-07T05:11:45;18.90;99.90
48454;DHT22;34261;55.678;12.464;2023-09-07T05:14:11;18.90;99.90
48454;DHT22;34261;55.678;12.464;2023-09-07T05:16:37;18.80;99.90
48454;DHT22;34261;55.678;12.464;2023-09-07T05:19:02;18.80;99.90
48454;DHT22;34261;55.678;12.464;2023-09-07T05:21:28;18.90;99.90
48454;DHT22;34261;55.678;12.464;2023-09-07T05:23:54;18.90;99.90
48454;DHT22;34261;55.678;12.464;2023-09-07T05:26:21;18.90;99.90
48454;DHT22;34261;55.678;12.464;2023-09-07T05:28:47;19.00;99.90
48454;DHT22;34261;55.678;12.464;2023-09-07T05:31:13;19.00;99.90
48454;DHT22;34261;55.678;12.464;2023-09-07T05:33:39;18.90;99.90
48454;DHT22;34261;55.678;12.464;2023-09-07T05:36:05;18.90;99.90
48454;DHT22;34261;55.678;12.464;2023-09-07T05:38:30;18.90;99.90
48454;DHT22;34261;55.678;12.464;2023-09-07T05:40:56;19.10;99.90
48454;DHT22;34261;55.678;12.464;2023-09-07T05:43:22;19.10;99.90
48454;DHT22;34261;55.678;12.464;2023-09-07T05:45:47;19.10;99.90
48454;DHT22;34261;55.678;12.464;2023-09-07T05:48:13;19.10;99.90
48454;DHT22;34261;55.678;12.464;2023-09-07T05:50:42;19.10;99.90
48454;DHT22;34261;55.678;12.464;2023-09-07T05:53:07;19.10;99.90
48454;DHT22;34261;55.678;12.464;2023-09-07T05:55:33;19.10;99.90
48454;DHT22;34261;55.678;12.464;2023-09-07T05:57:59;19.10;99.90
48454;DHT22;34261;55.678;12.464;2023-09-07T06:00:25;19.10;99.90
48454;DHT22;34261;55.678;12.464;2023-09-07T06:02:50;19.10;99.90
48454;DHT22;34261;55.678;12.464;2023-09-07T06:05:16;19.10;99.90
48454;DHT22;34261;55.678;12.464;2023-09-07T06:07:43;19.10;99.90
48454;DHT22;34261;55.678;12.464;2023-09-07T06:10:09;19.10;99.90
48454;DHT22;34261;55.678;12.464;2023-09-07T06:12:35;19.20;99.90
48454;DHT22;34261;55.678;12.464;2023-09-07T06:15:01;19.20;99.90
48454;DHT22;34261;55.678;12.464;2023-09-07T06:17:28;19.20;99.90
48454;DHT22;34261;55.678;12.464;2023-09-07T06:19:54;19.20;99.90
48454;DHT22;34261;55.678;12.464;2023-09-07T06:22:20;19.20;99.90
48454;DHT22;34261;55.678;12.464;2023-09-07T06:24:45;19.20;99.90
48454;DHT22;34261;55.678;12.464;2023-09-07T06:27:11;19.20;99.90
48454;DHT22;34261;55.678;12.464;2023-09-07T06:29:36;19.20;99.90
48454;DHT22;34261;55.678;12.464;2023-09-07T06:32:02;19.30;99.90
48454;DHT22;34261;55.678;12.464;2023-09-07T06:34:28;19.30;99.90
48454;DHT22;34261;55.678;12.464;2023-09-07T06:36:53;19.30;99.90
48454;DHT22;34261;55.678;12.464;2023-09-07T06:39:19;19.50;99.90
48454;DHT22;34261;55.678;12.464;2023-09-07T06:41:46;19.60;99.90
48454;DHT22;34261;55.678;12.464;2023-09-07T06:44:12;19.60;99.90
48454;DHT22;34261;55.678;12.464;2023-09-07T06:46:37;19.70;99.90
48454;DHT22;34261;55.678;12.464;2023-09-07T06:49:03;19.70;99.90
48454;DHT22;34261;55.678;12.464;2023-09-07T06:51:30;19.70;99.90
48454;DHT22;34261;55.678;12.464;2023-09-07T06:53:56;19.80;99.90
48454;DHT22;34261;55.678;12.464;2023-09-07T06:56:21;19.80;99.90
48454;DHT22;34261;55.678;12.464;2023-09-07T06:58:47;20.00;99.90
48454;DHT22;34261;55.678;12.464;2023-09-07T07:01:13;20.00;99.90
48454;DHT22;34261;55.678;12.464;2023-09-07T07:03:38;19.90;99.90
48454;DHT22;34261;55.678;12.464;2023-09-07T07:06:04;19.90;99.90
48454;DHT22;34261;55.678;12.464;2023-09-07T07:08:29;19.80;99.90
48454;DHT22;34261;55.678;12.464;2023-09-07T07:10:55;19.90;99.90
48454;DHT22;34261;55.678;12.464;2023-09-07T07:13:21;20.00;99.90
48454;DHT22;34261;55.678;12.464;2023-09-07T07:15:46;20.00;99.90
48454;DHT22;34261;55.678;12.464;2023-09-07T07:18:12;20.10;99.90
48454;DHT22;34261;55.678;12.464;2023-09-07T07:20:38;20.20;99.90
48454;DHT22;34261;55.678;12.464;2023-09-07T07:23:05;20.20;99.90
48454;DHT22;34261;55.678;12.464;2023-09-07T07:25:32;20.30;99.90
48454;DHT22;34261;55.678;12.464;2023-09-07T07:28:05;20.30;99.90
48454;DHT22;34261;55.678;12.464;2023-09-07T07:30:35;20.30;99.90
48454;DHT22;34261;55.678;12.464;2023-09-07T07:33:02;20.40;99.90
48454;DHT22;34261;55.678;12.464;2023-09-07T07:35:34;20.50;99.90
48454;DHT22;34261;55.678;12.464;2023-09-07T07:38:01;20.40;99.90
48454;DHT22;34261;55.678;12.464;2023-09-07T07:40:26;20.40;99.90
48454;DHT22;34261;55.678;12.464;2023-09-07T07:42:52;20.60;99.90
48454;DHT22;34261;55.678;12.464;2023-09-07T07:45:18;20.60;99.90
48454;DHT22;34261;55.678;12.464;2023-09-07T07:47:45;20.60;99.90
48454;DHT22;34261;55.678;12.464;2023-09-07T07:50:11;20.60;99.90
48454;DHT22;34261;55.678;12.464;2023-09-07T07:52:37;20.70;99.90
48454;DHT22;34261;55.678;12.464;2023-09-07T07:55:02;20.70;99.90
48454;DHT22;34261;55.678;12.464;2023-09-07T07:57:28;20.70;99.90
48454;DHT22;34261;55.678;12.464;2023-09-07T07:59:56;20.80;99.90
48454;DHT22;34261;55.678;12.464;2023-09-07T08:02:22;20.80;99.90
48454;DHT22;34261;55.678;12.464;2023-09-07T08:04:47;20.90;99.90
48454;DHT22;34261;55.678;12.464;2023-09-07T08:07:13;21.20;99.90
48454;DHT22;34261;55.678;12.464;2023-09-07T08:09:38;21.40;99.90
48454;DHT22;34261;55.678;12.464;2023-09-07T08:12:05;21.50;99.90
48454;DHT22;34261;55.678;12.464;2023-09-07T08:14:31;21.40;99.90
48454;DHT22;34261;55.678;12.464;2023-09-07T08:16:57;21.40;99.90
48454;DHT22;34261;55.678;12.464;2023-09-07T08:19:23;21.50;99.90
48454;DHT22;34261;55.678;12.464;2023-09-07T08:21:50;21.70;99.90
48454;DHT22;34261;55.678;12.464;2023-09-07T08:24:15;21.60;99.90
48454;DHT22;34261;55.678;12.464;2023-09-07T08:26:41;21.60;99.90
48454;DHT22;34261;55.678;12.464;2023-09-07T08:29:08;21.60;99.90
48454;DHT22;34261;55.678;12.464;2023-09-07T08:31:38;21.70;99.90
48454;DHT22;34261;55.678;12.464;2023-09-07T08:34:05;21.90;99.90
48454;DHT22;34261;55.678;12.464;2023-09-07T08:36:32;21.80;99.90
48454;DHT22;34261;55.678;12.464;2023-09-07T08:39:00;21.80;99.90
48454;DHT22;34261;55.678;12.464;2023-09-07T08:41:30;21.90;99.90
48454;DHT22;34261;55.678;12.464;2023-09-07T08:43:57;22.00;99.90
48454;DHT22;34261;55.678;12.464;2023-09-07T08:46:23;22.10;99.90
48454;DHT22;34261;55.678;12.464;2023-09-07T08:48:49;22.20;99.90
48454;DHT22;34261;55.678;12.464;2023-09-07T08:51:16;22.30;99.90
48454;DHT22;34261;55.678;12.464;2023-09-07T08:53:42;22.40;99.90
48454;DHT22;34261;55.678;12.464;2023-09-07T08:56:16;22.40;99.90
48454;DHT22;34261;55.678;12.464;2023-09-07T08:58:42;22.30;99.90
48454;DHT22;34261;55.678;12.464;2023-09-07T09:01:10;22.40;99.90
48454;DHT22;34261;55.678;12.464;2023-09-07T09:03:36;22.60;99.90
48454;DHT22;34261;55.678;12.464;2023-09-07T09:06:03;22.60;99.90
48454;DHT22;34261;55.678;12.464;2023-09-07T09:08:44;22.60;99.90
48454;DHT22;34261;55.678;12.464;2023-09-07T09:11:10;22.80;99.90
48454;DHT22;34261;55.678;12.464;2023-09-07T09:13:36;22.90;99.90
48454;DHT22;34261;55.678;12.464;2023-09-07T09:16:02;23.00;99.90
48454;DHT22;34261;55.678;12.464;2023-09-07T09:18:28;23.10;99.90
48454;DHT22;34261;55.678;12.464;2023-09-07T09:20:55;23.20;99.90
48454;DHT22;34261;55.678;12.464;2023-09-07T09:23:21;23.30;99.90
48454;DHT22;34261;55.678;12.464;2023-09-07T09:25:50;23.40;99.90
48454;DHT22;34261;55.678;12.464;2023-09-07T09:28:16;23.60;99.90
48454;DHT22;34261;55.678;12.464;2023-09-07T09:30:42;23.60;99.90
48454;DHT22;34261;55.678;12.464;2023-09-07T09:33:11;23.70;99.90
48454;DHT22;34261;55.678;12.464;2023-09-07T09:35:37;23.80;99.90
48454;DHT22;34261;55.678;12.464;2023-09-07T09:38:03;24.00;99.90
48454;DHT22;34261;55.678;12.464;2023-09-07T09:40:33;24.10;99.90
48454;DHT22;34261;55.678;12.464;2023-09-07T09:43:02;24.20;99.90
48454;DHT22;34261;55.678;12.464;2023-09-07T09:45:31;24.20;99.90
48454;DHT22;34261;55.678;12.464;2023-09-07T09:47:58;24.10;99.90
48454;DHT22;34261;55.678;12.464;2023-09-07T09:50:27;24.20;99.90
48454;DHT22;34261;55.678;12.464;2023-09-07T09:52:53;24.30;99.90
48454;DHT22;34261;55.678;12.464;2023-09-07T09:55:28;24.30;99.90
48454;DHT22;34261;55.678;12.464;2023-09-07T09:57:55;24.40;99.90
48454;DHT22;34261;55.678;12.464;2023-09-07T10:00:22;24.40;99.90
48454;DHT22;34261;55.678;12.464;2023-09-07T10:03:07;24.50;99.90
48454;DHT22;34261;55.678;12.464;2023-09-07T10:05:34;24.60;99.90
48454;DHT22;34261;55.678;12.464;2023-09-07T10:08:22;24.70;99.90
48454;DHT22;34261;55.678;12.464;2023-09-07T10:10:52;24.90;99.90
48454;DHT22;34261;55.678;12.464;2023-09-07T10:13:31;25.00;99.90
48454;DHT22;34261;55.678;12.464;2023-09-07T10:16:06;25.00;99.90
48454;DHT22;34261;55.678;12.464;2023-09-07T10:18:36;25.00;99.90
48454;DHT22;34261;55.678;12.464;2023-09-07T10:21:03;25.20;99.90
48454;DHT22;34261;55.678;12.464;2023-09-07T10:23:40;25.30;99.90
48454;DHT22;34261;55.678;12.464;2023-09-07T10:26:35;25.30;99.90
48454;DHT22;34261;55.678;12.464;2023-09-07T10:29:01;25.20;99.90
48454;DHT22;34261;55.678;12.464;2023-09-07T10:31:29;25.20;99.90
48454;DHT22;34261;55.678;12.464;2023-09-07T10:33:56;25.40;99.90
48454;DHT22;34261;55.678;12.464;2023-09-07T10:36:27;25.50;99.90
48454;DHT22;34261;55.678;12.464;2023-09-07T10:38:54;25.70;99.90
48454;DHT22;34261;55.678;12.464;2023-09-07T10:41:20;25.80;99.90
48454;DHT22;34261;55.678;12.464;2023-09-07T10:43:48;25.60;99.90
48454;DHT22;34261;55.678;12.464;2023-09-07T10:46:14;25.70;99.90
48454;DHT22;34261;55.678;12.464;2023-09-07T10:48:43;25.90;99.90
48454;DHT22;34261;55.678;12.464;2023-09-07T10:51:08;26.00;99.90
48454;DHT22;34261;55.678;12.464;2023-09-07T10:53:34;26.30;99.90
48454;DHT22;34261;55.678;12.464;2023-09-07T10:56:03;26.60;99.90
48454;DHT22;34261;55.678;12.464;2023-09-07T10:58:33;26.60;99.90
48454;DHT22;34261;55.678;12.464;2023-09-07T11:01:00;26.60;99.90
48454;DHT22;34261;55.678;12.464;2023-09-07T11:03:27;26.50;99.90
48454;DHT22;34261;55.678;12.464;2023-09-07T11:06:14;26.70;99.90
48454;DHT22;34261;55.678;12.464;2023-09-07T11:08:40;26.50;99.90
48454;DHT22;34261;55.678;12.464;2023-09-07T11:11:08;26.40;99.90
48454;DHT22;34261;55.678;12.464;2023-09-07T11:13:34;26.20;99.90
48454;DHT22;34261;55.678;12.464;2023-09-07T11:16:00;26.20;99.90
48454;DHT22;34261;55.678;12.464;2023-09-07T11:18:26;26.10;99.90
48454;DHT22;34261;55.678;12.464;2023-09-07T11:20:52;26.20;99.90
48454;DHT22;34261;55.678;12.464;2023-09-07T11:23:19;26.10;99.90
48454;DHT22;34261;55.678;12.464;2023-09-07T11:25:47;26.50;99.90
48454;DHT22;34261;55.678;12.464;2023-09-07T11:28:15;26.80;99.90
48454;DHT22;34261;55.678;12.464;2023-09-07T11:30:52;26.70;99.90
48454;DHT22;34261;55.678;12.464;2023-09-07T11:33:18;26.80;99.90
48454;DHT22;34261;55.678;12.464;2023-09-07T11:35:44;26.80;99.90
48454;DHT22;34261;55.678;12.464;2023-09-07T11:38:13;26.80;99.90
48454;DHT22;34261;55.678;12.464;2023-09-07T11:40:39;27.10;99.90
48454;DHT22;34261;55.678;12.464;2023-09-07T11:43:05;27.00;99.90
48454;DHT22;34261;55.678;12.464;2023-09-07T11:45:31;27.10;99.90
48454;DHT22;34261;55.678;12.464;2023-09-07T11:47:57;27.30;99.90
48454;DHT22;34261;55.678;12.464;2023-09-07T11:50:24;27.50;99.90
48454;DHT22;34261;55.678;12.464;2023-09-07T11:52:55;27.40;99.90
48454;DHT22;34261;55.678;12.464;2023-09-07T11:55:21;27.10;99.90
48454;DHT22;34261;55.678;12.464;2023-09-07T11:57:47;27.00;99.90
48454;DHT22;34261;55.678;12.464;2023-09-07T12:00:13;27.30;99.90
48454;DHT22;34261;55.678;12.464;2023-09-07T12:02:40;27.50;99.90
48454;DHT22;34261;55.678;12.464;2023-09-07T12:05:07;27.30;99.90
48454;DHT22;34261;55.678;12.464;2023-09-07T12:07:40;27.30;99.90
48454;DHT22;34261;55.678;12.464;2023-09-07T12:10:05;27.50;99.90
48454;DHT22;34261;55.678;12.464;2023-09-07T12:12:38;27.40;99.90
48454;DHT22;34261;55.678;12.464;2023-09-07T12:15:04;27.70;99.90
48454;DHT22;34261;55.678;12.464;2023-09-07T12:17:31;27.70;99.90
48454;DHT22;34261;55.678;12.464;2023-09-07T12:19:57;27.40;99.90
48454;DHT22;34261;55.678;12.464;2023-09-07T12:22:23;27.70;99.90
48454;DHT22;34261;55.678;12.464;2023-09-07T12:24:49;27.90;99.90
48454;DHT22;34261;55.678;12.464;2023-09-07T12:27:14;28.30;99.90
48454;DHT22;34261;55.678;12.464;2023-09-07T12:29:40;28.40;99.90
48454;DHT22;34261;55.678;12.464;2023-09-07T12:32:06;28.20;99.90
48454;DHT22;34261;55.678;12.464;2023-09-07T12:34:32;28.00;99.90
48454;DHT22;34261;55.678;12.464;2023-09-07T12:36:57;27.70;99.90
48454;DHT22;34261;55.678;12.464;2023-09-07T12:39:23;27.70;99.90
48454;DHT22;34261;55.678;12.464;2023-09-07T12:41:48;27.40;99.90
48454;DHT22;34261;55.678;12.464;2023-09-07T12:44:14;27.40;99.90
48454;DHT22;34261;55.678;12.464;2023-09-07T12:46:39;27.50;99.90
48454;DHT22;34261;55.678;12.464;2023-09-07T12:49:05;27.40;99.90
48454;DHT22;34261;55.678;12.464;2023-09-07T12:51:31;27.40;99.90
48454;DHT22;34261;55.678;12.464;2023-09-07T12:53:57;27.00;99.90
48454;DHT22;34261;55.678;12.464;2023-09-07T12:56:22;26.70;99.90
48454;DHT22;34261;55.678;12.464;2023-09-07T12:58:48;27.00;99.90
48454;DHT22;34261;55.678;12.464;2023-09-07T13:01:14;27.40;99.90
48454;DHT22;34261;55.678;12.464;2023-09-07T13:03:41;27.70;99.90
48454;DHT22;34261;55.678;12.464;2023-09-07T13:06:07;28.00;99.90
48454;DHT22;34261;55.678;12.464;2023-09-07T13:08:32;28.30;99.90
48454;DHT22;34261;55.678;12.464;2023-09-07T13:10:58;28.20;99.90
48454;DHT22;34261;55.678;12.464;2023-09-07T13:13:24;28.00;99.90
48454;DHT22;34261;55.678;12.464;2023-09-07T13:15:55;28.00;99.90
48454;DHT22;34261;55.678;12.464;2023-09-07T13:18:21;28.00;99.90
48454;DHT22;34261;55.678;12.464;2023-09-07T13:20:47;28.20;99.90
48454;DHT22;34261;55.678;12.464;2023-09-07T13:23:13;28.40;99.90
48454;DHT22;34261;55.678;12.464;2023-09-07T13:25:39;28.60;99.90
48454;DHT22;34261;55.678;12.464;2023-09-07T13:28:05;28.40;99.90
48454;DHT22;34261;55.678;12.464;2023-09-07T13:30:30;28.20;99.90
48454;DHT22;34261;55.678;12.464;2023-09-07T13:32:56;28.10;99.90
48454;DHT22;34261;55.678;12.464;2023-09-07T13:35:21;28.00;99.90
48454;DHT22;34261;55.678;12.464;2023-09-07T13:37:47;28.00;99.90
48454;DHT22;34261;55.678;12.464;2023-09-07T13:40:13;28.10;99.90
48454;DHT22;34261;55.678;12.464;2023-09-07T13:42:40;28.10;99.90
48454;DHT22;34261;55.678;12.464;2023-09-07T13:45:06;27.80;99.90
48454;DHT22;34261;55.678;12.464;2023-09-07T13:47:32;27.90;99.90
48454;DHT22;34261;55.678;12.464;2023-09-07T13:49:57;28.00;99.90
48454;DHT22;34261;55.678;12.464;2023-09-07T13:52:23;28.10;99.90
48454;DHT22;34261;55.678;12.464;2023-09-07T13:54:49;27.90;99.90
48454;DHT22;34261;55.678;12.464;2023-09-07T13:57:14;28.00;99.90
48454;DHT22;34261;55.678;12.464;2023-09-07T13:59:40;27.70;99.90
48454;DHT22;34261;55.678;12.464;2023-09-07T14:02:05;27.80;99.90
48454;DHT22;34261;55.678;12.464;2023-09-07T14:04:31;27.80;99.90
48454;DHT22;34261;55.678;12.464;2023-09-07T14:06:57;27.80;99.90
48454;DHT22;34261;55.678;12.464;2023-09-07T14:09:22;27.70;99.90
48454;DHT22;34261;55.678;12.464;2023-09-07T14:11:48;27.40;99.90
48454;DHT22;34261;55.678;12.464;2023-09-07T14:14:14;27.40;99.90
48454;DHT22;34261;55.678;12.464;2023-09-07T14:16:40;27.30;99.90
48454;DHT22;34261;55.678;12.464;2023-09-07T14:19:06;27.50;99.90
48454;DHT22;34261;55.678;12.464;2023-09-07T14:21:32;27.40;99.90
48454;DHT22;34261;55.678;12.464;2023-09-07T14:23:57;27.80;99.90
48454;DHT22;34261;55.678;12.464;2023-09-07T14:26:23;28.00;99.90
48454;DHT22;34261;55.678;12.464;2023-09-07T14:28:48;28.00;99.90
48454;DHT22;34261;55.678;12.464;2023-09-07T14:31:15;27.90;99.90
48454;DHT22;34261;55.678;12.464;2023-09-07T14:33:41;27.70;99.90
48454;DHT22;34261;55.678;12.464;2023-09-07T14:36:08;27.80;99.90
48454;DHT22;34261;55.678;12.464;2023-09-07T14:38:34;27.80;99.90
48454;DHT22;34261;55.678;12.464;2023-09-07T14:41:06;27.90;99.90
48454;DHT22;34261;55.678;12.464;2023-09-07T14:43:32;27.70;99.90
48454;DHT22;34261;55.678;12.464;2023-09-07T14:45:58;27.60;99.90
48454;DHT22;34261;55.678;12.464;2023-09-07T14:48:23;27.60;99.90
48454;DHT22;34261;55.678;12.464;2023-09-07T14:50:50;27.70;99.90
48454;DHT22;34261;55.678;12.464;2023-09-07T14:53:15;27.70;99.90
48454;DHT22;34261;55.678;12.464;2023-09-07T14:55:41;27.50;99.90
48454;DHT22;34261;55.678;12.464;2023-09-07T14:58:07;27.40;99.90
48454;DHT22;34261;55.678;12.464;2023-09-07T15:00:34;27.40;99.90
48454;DHT22;34261;55.678;12.464;2023-09-07T15:03:00;27.10;99.90
48454;DHT22;34261;55.678;12.464;2023-09-07T15:05:25;27.30;99.90
48454;DHT22;34261;55.678;12.464;2023-09-07T15:07:51;27.30;99.90
48454;DHT22;34261;55.678;12.464;2023-09-07T15:10:17;27.40;99.90
48454;DHT22;34261;55.678;12.464;2023-09-07T15:12:42;27.40;99.90